createdAt,value
2019-02-21T00:01:15.700Z,14.70
2019-02-21T00:03:45.035Z,15.33
2019-02-21T00:06:13.884Z,17.50
2019-02-21T00:08:43.382Z,18.23
2019-02-21T00:11:13.397Z,16.87
2019-02-21T00:13:43.212Z,17.37
2019-02-21T00:16:12.808Z,15.77
2019-02-21T00:18:43.304Z,15.93
2019-02-21T00:21:12.732Z,16.50
2019-02-21T00:23:41.512Z,17.07
2019-02-21T00:26:10.568Z,15.73
2019-02-21T00:28:39.373Z,17.30
2019-02-21T00:31:08.179Z,14.40
2019-02-21T00:33:36.989Z,14.93
2019-02-21T00:36:06.379Z,16.17
2019-02-21T00:38:35.183Z,14.97
2019-02-21T00:41:04.993Z,18.03
2019-02-21T00:43:33.808Z,16.90
2019-02-21T00:46:03.515Z,16.37
2019-02-21T00:48:34.044Z,16.73
2019-02-21T00:51:03.536Z,15.40
2019-02-21T00:53:32.958Z,17.27
2019-02-21T00:56:01.736Z,15.93
2019-02-21T00:58:32.802Z,18.23
2019-02-21T01:01:06.530Z,16.87
2019-02-21T01:03:35.910Z,18.17
2019-02-21T01:06:04.722Z,17.33
2019-02-21T01:08:34.091Z,18.40
2019-02-21T01:11:03.452Z,18.27
2019-02-21T01:13:33.446Z,18.43
2019-02-21T01:16:02.270Z,18.30
2019-02-21T01:18:31.069Z,17.63
2019-02-21T01:20:59.876Z,18.13
2019-02-21T01:23:29.247Z,18.80
2019-02-21T01:25:58.058Z,19.13
2019-02-21T01:28:27.559Z,18.77
2019-02-21T01:30:57.413Z,17.17
2019-02-21T01:33:25.779Z,18.27
2019-02-21T01:35:55.088Z,18.83
2019-02-21T01:38:23.875Z,18.63
2019-02-21T01:40:53.599Z,19.17
2019-02-21T01:43:23.985Z,20.83
2019-02-21T01:45:52.923Z,19.50
2019-02-21T01:48:22.266Z,22.40
2019-02-21T01:50:51.052Z,21.27
2019-02-21T01:53:20.440Z,21.37
2019-02-21T01:55:49.230Z,20.27
2019-02-21T01:58:18.583Z,23.10
2019-02-21T02:00:47.378Z,22.17
2019-02-21T02:03:17.402Z,22.90
2019-02-21T02:05:46.475Z,21.73
2019-02-21T02:08:15.860Z,20.47
2019-02-21T02:10:44.630Z,22.93
2019-02-21T02:13:24.159Z,19.17
2019-02-21T02:15:42.359Z,23.33
2019-02-21T02:18:12.468Z,23.83
2019-02-21T02:20:42.074Z,23.10
2019-02-21T02:23:11.508Z,22.50
2019-02-21T02:25:41.226Z,24.50
2019-02-21T02:28:10.733Z,27.03
2019-02-21T02:30:40.271Z,27.10
2019-02-21T02:33:09.031Z,25.87
2019-02-21T02:35:37.905Z,26.07
2019-02-21T02:38:07.343Z,26.83
2019-02-21T02:40:36.656Z,27.03
2019-02-21T02:43:05.441Z,25.83
2019-02-21T02:45:34.261Z,27.60
2019-02-21T02:48:03.078Z,28.07
2019-02-21T02:50:32.097Z,26.03
2019-02-21T02:53:01.759Z,23.37
2019-02-21T02:55:30.550Z,26.60
2019-02-21T02:58:00.406Z,26.60
2019-02-21T03:00:29.203Z,23.03
2019-02-21T03:02:59.568Z,24.93
2019-02-21T03:05:28.479Z,25.03
2019-02-21T03:07:57.307Z,26.10
2019-02-21T03:10:26.818Z,25.07
2019-02-21T03:12:55.595Z,26.17
2019-02-21T03:15:24.518Z,23.87
2019-02-21T03:17:53.331Z,26.20
2019-02-21T03:20:23.891Z,27.63
2019-02-21T03:22:52.657Z,26.70
2019-02-21T03:25:21.449Z,29.27
2019-02-21T03:27:50.253Z,26.97
2019-02-21T03:30:20.609Z,21.67
2019-02-21T03:32:49.525Z,24.50
2019-02-21T03:35:18.318Z,25.87
2019-02-21T03:37:48.428Z,25.67
2019-02-21T03:40:17.250Z,28.00
2019-02-21T03:42:46.670Z,23.63
2019-02-21T03:45:15.912Z,25.67
2019-02-21T03:47:44.975Z,29.03
2019-02-21T03:50:14.436Z,27.77
2019-02-21T03:52:43.980Z,27.87
2019-02-21T03:55:13.727Z,27.73
2019-02-21T03:57:43.154Z,23.30
2019-02-21T04:00:11.982Z,28.43
2019-02-21T04:02:41.382Z,29.00
2019-02-21T04:05:10.388Z,27.20
2019-02-21T04:07:40.146Z,30.70
2019-02-21T04:10:10.168Z,26.83
2019-02-21T04:12:39.482Z,28.80
2019-02-21T04:15:08.344Z,27.40
2019-02-21T04:17:38.085Z,28.47
2019-02-21T04:20:06.947Z,30.03
2019-02-21T04:22:35.733Z,28.33
2019-02-21T04:25:04.647Z,35.07
2019-02-21T04:27:33.479Z,31.47
2019-02-21T04:30:03.010Z,30.50
2019-02-21T04:32:32.571Z,31.77
2019-02-21T04:35:01.423Z,31.40
2019-02-21T04:37:30.517Z,26.60
2019-02-21T04:39:59.304Z,27.03
2019-02-21T04:42:29.041Z,24.83
2019-02-21T04:44:57.808Z,33.70
2019-02-21T04:47:27.631Z,29.33
2019-02-21T04:49:57.693Z,32.57
2019-02-21T04:52:26.467Z,36.20
2019-02-21T04:54:55.263Z,31.30
2019-02-21T04:57:24.088Z,33.67
2019-02-21T04:59:52.987Z,25.47
2019-02-21T05:02:29.277Z,33.30
2019-02-21T05:04:50.863Z,26.73
2019-02-21T05:07:20.494Z,29.70
2019-02-21T05:09:57.300Z,25.17
2019-02-21T05:12:20.179Z,28.13
2019-02-21T05:14:48.887Z,33.03
2019-02-21T05:17:20.417Z,25.60
2019-02-21T05:19:50.405Z,30.93
2019-02-21T05:22:20.080Z,32.17
2019-02-21T05:24:49.035Z,32.30
2019-02-21T05:27:24.239Z,29.40
2019-02-21T05:29:53.063Z,34.17
2019-02-21T05:32:27.186Z,34.33
2019-02-21T05:35:06.547Z,35.63
2019-02-21T05:37:41.227Z,37.07
2019-02-21T05:40:14.238Z,39.50
2019-02-21T05:42:55.432Z,27.33
2019-02-21T05:45:30.651Z,36.77
2019-02-21T05:48:09.306Z,33.13
2019-02-21T05:50:44.178Z,32.80
2019-02-21T05:53:17.126Z,40.30
2019-02-21T05:55:51.586Z,34.93
2019-02-21T05:58:26.174Z,36.37
2019-02-21T06:01:01.005Z,37.57
2019-02-21T06:03:36.994Z,37.07
2019-02-21T06:06:17.297Z,39.87
2019-02-21T06:08:49.759Z,35.83
2019-02-21T06:11:25.443Z,37.00
2019-02-21T06:14:00.886Z,42.17
2019-02-21T06:16:35.077Z,37.80
2019-02-21T06:19:27.516Z,39.70
2019-02-21T06:22:10.032Z,35.83
2019-02-21T06:24:51.523Z,37.17
2019-02-21T06:27:25.233Z,42.17
2019-02-21T06:29:58.429Z,37.47
2019-02-21T06:32:28.249Z,34.97
2019-02-21T06:35:02.795Z,40.90
2019-02-21T06:37:30.679Z,39.77
2019-02-21T06:40:00.211Z,37.40
2019-02-21T06:42:29.293Z,36.77
2019-02-21T06:44:59.902Z,35.67
2019-02-21T06:47:29.032Z,33.43
2019-02-21T06:49:58.780Z,37.57
2019-02-21T06:52:28.027Z,34.43
2019-02-21T06:54:56.897Z,37.67
2019-02-21T06:57:27.365Z,40.87
2019-02-21T06:59:56.172Z,38.83
2019-02-21T07:02:27.988Z,42.40
2019-02-21T07:04:56.604Z,39.73
2019-02-21T07:07:23.355Z,37.43
2019-02-21T07:09:52.736Z,35.43
2019-02-21T07:12:21.542Z,35.30
2019-02-21T07:14:50.848Z,29.70
2019-02-21T07:17:20.650Z,33.60
2019-02-21T07:19:50.619Z,35.60
2019-02-21T07:22:22.369Z,33.83
2019-02-21T07:24:50.310Z,35.93
2019-02-21T07:27:19.611Z,34.97
2019-02-21T07:29:49.205Z,35.93
2019-02-21T07:32:18.018Z,36.17
2019-02-21T07:34:47.809Z,33.97
2019-02-21T07:37:18.954Z,35.97
2019-02-21T07:39:47.929Z,38.50
2019-02-21T07:42:17.374Z,38.47
2019-02-21T07:44:46.167Z,37.00
2019-02-21T07:47:15.819Z,37.27
2019-02-21T07:49:45.885Z,36.00
2019-02-21T07:52:14.715Z,34.37
2019-02-21T07:54:46.538Z,37.97
2019-02-21T07:57:16.371Z,38.37
2019-02-21T07:59:45.155Z,35.63
2019-02-21T08:02:13.946Z,36.67
2019-02-21T08:04:43.350Z,37.47
2019-02-21T08:07:12.145Z,38.87
2019-02-21T08:09:41.851Z,40.33
2019-02-21T08:12:10.357Z,40.10
2019-02-21T08:14:39.760Z,38.97
2019-02-21T08:17:09.988Z,40.83
2019-02-21T08:19:38.810Z,39.27
2019-02-21T08:22:07.656Z,41.07
2019-02-21T08:24:37.455Z,42.77
2019-02-21T08:27:06.244Z,44.57
2019-02-21T08:29:35.050Z,44.47
2019-02-21T08:32:04.104Z,44.73
2019-02-21T08:34:37.164Z,45.43
2019-02-21T08:37:08.545Z,45.90
2019-02-21T08:39:37.958Z,46.70
2019-02-21T08:42:07.896Z,46.63
2019-02-21T08:44:38.134Z,47.07
2019-02-21T08:47:06.967Z,47.90
2019-02-21T08:49:36.040Z,47.43
2019-02-21T08:52:04.813Z,44.27
2019-02-21T08:54:34.320Z,48.53
2019-02-21T08:57:04.002Z,45.53
2019-02-21T08:59:32.789Z,46.63
2019-02-21T09:02:01.614Z,47.33
2019-02-21T09:04:30.425Z,48.33
2019-02-21T09:06:59.266Z,46.30
2019-02-21T09:09:28.114Z,46.77
2019-02-21T09:11:56.939Z,49.33
2019-02-21T09:14:25.741Z,49.17
2019-02-21T09:16:54.807Z,49.83
2019-02-21T09:19:23.591Z,48.37
2019-02-21T09:21:53.566Z,48.37
2019-02-21T09:24:37.486Z,46.20
2019-02-21T09:26:50.112Z,46.93
2019-02-21T09:29:18.931Z,46.07
2019-02-21T09:31:48.199Z,48.43
2019-02-21T09:34:21.080Z,47.50
2019-02-21T09:36:46.392Z,44.67
2019-02-21T09:39:16.077Z,46.33
2019-02-21T09:41:44.683Z,45.37
2019-02-21T09:44:13.470Z,44.33
2019-02-21T09:46:43.371Z,43.23
2019-02-21T09:49:12.263Z,43.77
2019-02-21T09:51:41.069Z,43.57
2019-02-21T09:54:10.634Z,42.60
2019-02-21T09:56:40.376Z,40.23
2019-02-21T09:59:11.025Z,38.53
2019-02-21T10:01:39.827Z,39.10
2019-02-21T10:04:09.447Z,38.50
2019-02-21T10:06:38.763Z,36.63
2019-02-21T10:09:08.812Z,40.13
2019-02-21T10:11:37.680Z,36.97
2019-02-21T10:14:06.473Z,36.97
2019-02-21T10:16:38.299Z,39.60
2019-02-21T10:19:07.093Z,36.57
2019-02-21T10:21:35.947Z,36.47
2019-02-21T10:24:06.727Z,36.50
2019-02-21T10:26:35.634Z,38.87
2019-02-21T10:29:07.041Z,35.43
2019-02-21T10:31:36.231Z,38.53
2019-02-21T10:34:07.253Z,37.47
2019-02-21T10:36:36.114Z,39.97
2019-02-21T10:39:05.416Z,38.17
2019-02-21T10:41:34.599Z,37.47
2019-02-21T10:44:04.636Z,40.20
2019-02-21T10:46:33.688Z,38.37
2019-02-21T10:49:02.522Z,37.20
2019-02-21T10:51:31.921Z,35.47
2019-02-21T10:54:00.752Z,36.50
2019-02-21T10:56:29.602Z,33.87
2019-02-21T10:58:58.379Z,33.20
2019-02-21T11:01:27.185Z,34.33
2019-02-21T11:03:55.988Z,33.47
2019-02-21T11:06:24.792Z,32.20
2019-02-21T11:08:53.614Z,32.80
2019-02-21T11:11:22.738Z,30.53
2019-02-21T11:13:52.213Z,31.13
2019-02-21T11:16:21.560Z,29.23
2019-02-21T11:18:53.005Z,27.73
2019-02-21T11:21:21.798Z,28.00
2019-02-21T11:23:51.242Z,26.17
2019-02-21T11:26:20.809Z,27.10
2019-02-21T11:28:50.897Z,27.23
2019-02-21T11:31:19.685Z,28.87
2019-02-21T11:33:49.229Z,29.77
2019-02-21T11:36:18.127Z,27.17
2019-02-21T11:38:47.259Z,29.30
2019-02-21T11:41:17.016Z,28.33
2019-02-21T11:43:45.835Z,27.13
2019-02-21T11:46:14.661Z,27.70
2019-02-21T11:48:44.254Z,27.70
2019-02-21T11:51:13.667Z,26.23
2019-02-21T11:53:43.355Z,26.07
2019-02-21T11:56:12.275Z,23.17
2019-02-21T11:58:41.783Z,24.73
2019-02-21T12:01:10.916Z,24.43
2019-02-21T12:03:39.741Z,24.27
2019-02-21T12:06:11.632Z,24.50
2019-02-21T12:08:40.491Z,25.87
2019-02-21T12:11:09.404Z,25.77
2019-02-21T12:13:38.224Z,26.53
2019-02-21T12:16:07.020Z,25.13
2019-02-21T12:18:37.928Z,24.50
2019-02-21T12:21:06.738Z,25.50
2019-02-21T12:23:35.577Z,26.00
2019-02-21T12:26:04.363Z,26.80
2019-02-21T12:28:33.205Z,26.33
2019-02-21T12:31:01.972Z,27.23
2019-02-21T12:33:30.848Z,28.00
2019-02-21T12:36:01.495Z,28.37
2019-02-21T12:38:30.283Z,30.00
2019-02-21T12:40:59.164Z,28.83
2019-02-21T12:43:29.015Z,27.60
2019-02-21T12:46:00.998Z,28.33
2019-02-21T12:48:29.835Z,28.43
2019-02-21T12:50:58.708Z,29.20
2019-02-21T12:53:28.307Z,26.83
2019-02-21T12:55:56.299Z,28.23
2019-02-21T12:58:27.742Z,28.53
2019-02-21T13:00:56.546Z,27.27
2019-02-21T13:03:26.003Z,28.57
2019-02-21T13:05:56.583Z,29.00
2019-02-21T13:08:26.206Z,28.17
2019-02-21T13:10:54.994Z,30.90
2019-02-21T13:13:25.974Z,30.77
2019-02-21T13:15:55.507Z,30.13
2019-02-21T13:18:24.330Z,29.50
2019-02-21T13:20:54.203Z,31.13
2019-02-21T13:23:24.025Z,30.13
2019-02-21T13:25:53.469Z,29.63
2019-02-21T13:28:22.905Z,31.10
2019-02-21T13:30:51.713Z,29.80
2019-02-21T13:33:21.226Z,28.27
2019-02-21T13:35:52.908Z,26.77
2019-02-21T13:38:19.496Z,27.70
2019-02-21T13:40:49.662Z,27.93
2019-02-21T13:43:18.450Z,28.17
2019-02-21T13:45:47.226Z,26.93
2019-02-21T13:48:17.791Z,25.87
2019-02-21T13:50:46.565Z,26.13
2019-02-21T13:53:16.735Z,24.03
2019-02-21T13:55:47.192Z,23.63
2019-02-21T13:58:16.666Z,21.87
2019-02-21T14:00:45.476Z,21.40
2019-02-21T14:03:15.135Z,22.80
2019-02-21T14:05:44.024Z,23.00
2019-02-21T14:08:13.635Z,22.27
2019-02-21T14:10:43.209Z,22.93
2019-02-21T14:13:12.592Z,23.03
2019-02-21T14:15:41.459Z,21.90
2019-02-21T14:18:10.802Z,22.17
2019-02-21T14:20:45.327Z,21.33
2019-02-21T14:23:09.795Z,22.90
2019-02-21T14:25:41.110Z,23.00
2019-02-21T14:28:08.395Z,19.90
2019-02-21T14:30:37.255Z,18.90
2019-02-21T14:33:06.150Z,16.63
2019-02-21T14:35:36.169Z,14.33
2019-02-21T14:38:05.205Z,13.90
2019-02-21T14:40:34.003Z,13.53
2019-02-21T14:43:02.789Z,13.57
2019-02-21T14:45:31.591Z,13.37
2019-02-21T14:48:02.221Z,12.60
2019-02-21T14:50:32.095Z,13.33
2019-02-21T14:53:00.893Z,12.10
2019-02-21T14:55:30.260Z,13.63
2019-02-21T14:57:58.556Z,13.77
2019-02-21T15:00:27.368Z,13.30
2019-02-21T15:02:57.822Z,12.83
2019-02-21T15:05:25.531Z,14.60
2019-02-21T15:07:54.372Z,14.20
2019-02-21T15:10:24.205Z,15.57
2019-02-21T15:12:53.021Z,15.50
2019-02-21T15:15:22.265Z,14.77
2019-02-21T15:17:51.286Z,14.10
2019-02-21T15:20:20.152Z,13.87
2019-02-21T15:22:49.635Z,15.33
2019-02-21T15:25:18.394Z,16.27
2019-02-21T15:27:47.211Z,14.60
2019-02-21T15:30:17.539Z,16.17
2019-02-21T15:32:48.064Z,15.30
2019-02-21T15:35:19.318Z,16.37
2019-02-21T15:37:47.868Z,15.37
2019-02-21T15:40:17.751Z,16.10
2019-02-21T15:42:47.182Z,15.33
2019-02-21T15:45:23.182Z,16.03
2019-02-21T15:47:46.875Z,16.33
2019-02-21T15:50:16.135Z,16.77
2019-02-21T15:52:45.013Z,17.33
2019-02-21T15:55:14.892Z,18.30
2019-02-21T15:57:44.319Z,18.70
2019-02-21T16:00:15.237Z,18.30
2019-02-21T16:02:44.071Z,18.77
2019-02-21T16:05:13.943Z,18.10
2019-02-21T16:07:43.967Z,18.87
2019-02-21T16:10:14.972Z,20.07
2019-02-21T16:12:44.299Z,19.17
2019-02-21T16:15:16.215Z,17.97
2019-02-21T16:17:42.652Z,20.53
2019-02-21T16:20:12.239Z,19.63
2019-02-21T16:22:41.229Z,19.97
2019-02-21T16:25:11.973Z,19.70
2019-02-21T16:27:40.931Z,20.93
2019-02-21T16:30:09.928Z,21.23
2019-02-21T16:32:38.742Z,22.67
2019-02-21T16:35:08.335Z,22.87
2019-02-21T16:37:40.395Z,25.37
2019-02-21T16:40:10.763Z,25.90
2019-02-21T16:42:39.618Z,23.73
2019-02-21T16:45:09.866Z,26.57
2019-02-21T16:47:38.715Z,25.93
2019-02-21T16:50:08.547Z,28.63
2019-02-21T16:52:37.475Z,28.23
2019-02-21T16:55:08.929Z,30.03
2019-02-21T16:57:39.332Z,32.23
2019-02-21T17:00:11.088Z,27.90
2019-02-21T17:02:39.873Z,32.40
2019-02-21T17:05:09.259Z,35.80
2019-02-21T17:07:38.127Z,33.27
2019-02-21T17:10:07.702Z,34.50
2019-02-21T17:12:37.218Z,34.77
2019-02-21T17:15:07.576Z,35.70
2019-02-21T17:17:36.973Z,35.77
2019-02-21T17:20:06.721Z,40.83
2019-02-21T17:22:35.586Z,38.10
2019-02-21T17:25:04.771Z,40.80
2019-02-21T17:27:34.332Z,38.93
2019-02-21T17:30:03.162Z,38.63
2019-02-21T17:32:33.830Z,42.13
2019-02-21T17:35:03.620Z,40.60
2019-02-21T17:37:32.505Z,42.30
2019-02-21T17:40:01.389Z,41.17
2019-02-21T17:42:30.215Z,41.63
2019-02-21T17:44:59.051Z,43.13
2019-02-21T17:47:27.868Z,36.53
2019-02-21T17:49:56.752Z,42.00
2019-02-21T17:52:25.548Z,43.37
2019-02-21T17:54:54.398Z,37.67
2019-02-21T17:57:23.196Z,43.97
2019-02-21T17:59:52.031Z,41.13
2019-02-21T18:02:21.711Z,37.77
2019-02-21T18:04:51.257Z,38.57
2019-02-21T18:07:20.719Z,41.97
2019-02-21T18:09:49.521Z,37.30
2019-02-21T18:12:18.351Z,33.57
2019-02-21T18:14:47.167Z,33.37
2019-02-21T18:17:16.677Z,34.47
2019-02-21T18:19:45.502Z,34.20
2019-02-21T18:22:14.998Z,36.17
2019-02-21T18:24:44.595Z,34.50
2019-02-21T18:27:13.458Z,33.70
2019-02-21T18:29:43.779Z,36.93
2019-02-21T18:32:17.437Z,38.43
2019-02-21T18:34:49.608Z,34.27
2019-02-21T18:37:19.116Z,34.43
2019-02-21T18:39:47.965Z,38.20
2019-02-21T18:42:18.047Z,33.00
2019-02-21T18:44:47.163Z,39.30
2019-02-21T18:47:18.982Z,39.13
2019-02-21T18:49:48.039Z,36.53
2019-02-21T18:52:17.242Z,38.50
2019-02-21T18:54:46.067Z,38.87
2019-02-21T18:57:15.885Z,42.20
2019-02-21T19:00:09.923Z,38.27
2019-02-21T19:02:38.799Z,44.97
2019-02-21T19:05:07.818Z,46.83
2019-02-21T19:07:37.475Z,46.20
2019-02-21T19:10:08.119Z,37.03
2019-02-21T19:12:38.230Z,44.63
2019-02-21T19:15:08.734Z,45.83
2019-02-21T19:17:37.606Z,46.50
2019-02-21T19:20:08.298Z,45.07
2019-02-21T19:22:37.422Z,44.10
2019-02-21T19:25:08.562Z,42.90
2019-02-21T19:27:37.714Z,45.80
2019-02-21T19:30:10.197Z,47.60
2019-02-21T19:32:39.355Z,43.50
2019-02-21T19:35:08.924Z,43.20
2019-02-21T19:37:37.678Z,43.33
2019-02-21T19:40:08.099Z,41.53
2019-02-21T19:42:36.912Z,43.47
2019-02-21T19:45:06.364Z,41.93
2019-02-21T19:47:35.933Z,47.07
2019-02-21T19:50:04.997Z,46.77
2019-02-21T19:52:33.894Z,48.40
2019-02-21T19:55:03.037Z,44.17
2019-02-21T19:57:32.959Z,49.70
2019-02-21T20:00:02.400Z,48.50
2019-02-21T20:02:31.795Z,47.93
2019-02-21T20:05:00.614Z,49.70
2019-02-21T20:07:30.371Z,49.37
2019-02-21T20:10:00.038Z,46.00
2019-02-21T20:12:28.908Z,49.70
2019-02-21T20:14:57.715Z,46.67
2019-02-21T20:17:26.631Z,43.97
2019-02-21T20:19:55.511Z,48.63
2019-02-21T20:22:24.323Z,49.27
2019-02-21T20:24:53.166Z,47.97
2019-02-21T20:27:22.081Z,46.53
2019-02-21T20:29:50.943Z,46.90
2019-02-21T20:32:19.759Z,47.97
2019-02-21T20:34:48.567Z,46.50
2019-02-21T20:37:17.409Z,51.80
2019-02-21T20:39:46.216Z,48.60
2019-02-21T20:42:15.313Z,50.30
2019-02-21T20:44:44.123Z,49.10
2019-02-21T20:47:12.975Z,52.93
2019-02-21T20:49:41.768Z,49.03
2019-02-21T20:52:10.572Z,48.57
2019-02-21T20:54:39.363Z,50.87
2019-02-21T20:57:08.234Z,47.87
2019-02-21T20:59:37.048Z,48.20
2019-02-21T21:02:05.842Z,50.13
2019-02-21T21:04:34.760Z,49.43
2019-02-21T21:07:03.614Z,48.67
2019-02-21T21:09:32.997Z,47.93
2019-02-21T21:12:01.847Z,49.23
2019-02-21T21:14:30.648Z,52.17
2019-02-21T21:16:59.470Z,49.77
2019-02-21T21:19:28.261Z,50.00
2019-02-21T21:21:57.159Z,51.63
2019-02-21T21:24:26.487Z,54.33
2019-02-21T21:26:56.253Z,51.50
2019-02-21T21:29:25.058Z,53.97
2019-02-21T21:31:55.010Z,53.10
2019-02-21T21:34:25.805Z,52.43
2019-02-21T21:36:54.666Z,51.50
2019-02-21T21:39:23.643Z,56.37
2019-02-21T21:41:52.433Z,60.87
2019-02-21T21:44:21.243Z,55.93
2019-02-21T21:46:50.084Z,57.63
2019-02-21T21:49:20.117Z,58.43
2019-02-21T21:51:48.881Z,59.87
2019-02-21T21:54:17.733Z,62.57
2019-02-21T21:56:46.564Z,61.90
2019-02-21T21:59:15.410Z,61.40
2019-02-21T22:01:47.555Z,61.20
2019-02-21T22:04:15.182Z,62.33
2019-02-21T22:06:44.049Z,65.07
2019-02-21T22:09:12.927Z,65.90
2019-02-21T22:11:41.847Z,65.77
2019-02-21T22:14:10.650Z,65.07
2019-02-21T22:16:39.448Z,64.40
2019-02-21T22:19:08.288Z,63.93
2019-02-21T22:21:37.124Z,63.83
2019-02-21T22:24:05.980Z,69.43
2019-02-21T22:26:35.595Z,72.23
2019-02-21T22:29:05.095Z,70.77
2019-02-21T22:31:33.987Z,65.87
2019-02-21T22:34:02.800Z,68.17
2019-02-21T22:36:31.701Z,67.03
2019-02-21T22:39:02.076Z,67.37
2019-02-21T22:41:29.348Z,65.80
2019-02-21T22:43:58.146Z,68.57
2019-02-21T22:46:27.223Z,68.50
2019-02-21T22:48:57.299Z,69.40
2019-02-21T22:51:26.108Z,66.97
2019-02-21T22:53:54.919Z,66.10
2019-02-21T22:56:26.358Z,63.87
2019-02-21T22:58:55.236Z,69.53
2019-02-21T23:01:29.319Z,71.03
2019-02-21T23:04:15.001Z,70.17
2019-02-21T23:07:00.744Z,67.03
2019-02-21T23:09:30.200Z,67.37
2019-02-21T23:11:59.036Z,63.00
2019-02-21T23:14:27.847Z,67.00
2019-02-21T23:16:56.644Z,76.23
2019-02-21T23:19:25.805Z,64.80
2019-02-21T23:21:55.320Z,69.77
2019-02-21T23:24:24.204Z,65.63
2019-02-21T23:26:53.007Z,64.73
2019-02-21T23:29:21.902Z,65.07
2019-02-21T23:31:50.732Z,69.17
2019-02-21T23:34:25.083Z,69.47
2019-02-21T23:36:53.990Z,65.60
2019-02-21T23:39:23.492Z,64.70
2019-02-21T23:41:52.365Z,67.97
2019-02-21T23:44:21.178Z,65.70
2019-02-21T23:46:54.118Z,68.60
2019-02-21T23:49:21.881Z,65.87
2019-02-21T23:51:52.019Z,65.30
2019-02-21T23:54:21.988Z,66.50
2019-02-21T23:56:50.830Z,67.97
2019-02-21T23:59:20.189Z,66.40
